Time;durP1;ratioP1;P1;durP2;ratioP2;P2;SDS_P1;SDS_P2;PMS_P1;PMS_P2;Temp;Humidity;BMP_temperature;BMP_pressure;BME280_temperature;BME280_humidity;BME280_pressure;Samples;Min_cycle;Max_cycle;Signal;HPM_P1;HPM_P2
2023/08/12 00:01:52;;;;;;;7.40;3.65;;;;;;;;;;10065882;28;20586;-70
2023/08/12 00:06:44;;;;;;;4.55;3.90;;;;;;;;;;10065999;28;20628;-71
2023/08/12 00:11:36;;;;;;;7.65;3.95;;;;;;;;;;10065586;28;20057;-70
2023/08/12 00:16:28;;;;;;;6.38;4.47;;;;;;;;;;10065454;28;20137;-70
2023/08/12 00:21:20;;;;;;;4.70;3.45;;;;;;;;;;10061780;28;20042;-71
2023/08/12 00:26:11;;;;;;;4.07;3.40;;;;;;;;;;10061994;28;20053;-71
2023/08/12 00:31:04;;;;;;;4.75;4.28;;;;;;;;;;10064351;28;20124;-71
2023/08/12 00:35:57;;;;;;;5.43;4.13;;;;;;;;;;10062997;28;20041;-70
2023/08/12 00:40:49;;;;;;;6.85;3.88;;;;;;;;;;10071326;28;20059;-70
2023/08/12 00:45:41;;;;;;;3.40;3.10;;;;;;;;;;10102445;28;20357;-71
2023/08/12 00:50:33;;;;;;;10.90;3.55;;;;;;;;;;10061946;28;20081;-69
2023/08/12 00:55:25;;;;;;;4.05;3.65;;;;;;;;;;10071245;28;20133;-71
2023/08/12 01:00:20;;;;;;;3.75;3.45;;;;;;;;;;10038041;28;20046;-71
2023/08/12 01:05:12;;;;;;;3.70;3.40;;;;;;;;;;10077113;28;20045;-71
2023/08/12 01:10:04;;;;;;;5.00;4.00;;;;;;;;;;10065238;28;20042;-71
2023/08/12 01:15:14;;;;;;;3.90;3.28;;;;;;;;;;10064906;28;20034;-71
2023/08/12 01:20:12;;;;;;;4.18;3.50;;;;;;;;;;10062606;28;20491;-71
2023/08/12 01:25:05;;;;;;;5.30;4.30;;;;;;;;;;10057747;28;20053;-70
2023/08/12 01:29:57;;;;;;;3.80;3.40;;;;;;;;;;10069423;28;20045;-71
2023/08/12 01:35:07;;;;;;;4.20;3.35;;;;;;;;;;10079787;28;20061;-68
2023/08/12 01:40:01;;;;;;;5.45;3.75;;;;;;;;;;10117385;28;20053;-69
2023/08/12 01:44:52;;;;;;;5.80;3.20;;;;;;;;;;10073175;28;20053;-72
2023/08/12 01:49:44;;;;;;;4.93;3.70;;;;;;;;;;10084731;28;20045;-71
2023/08/12 01:54:36;;;;;;;3.45;3.15;;;;;;;;;;10064740;28;20096;-69
2023/08/12 01:59:35;;;;;;;6.35;3.67;;;;;;;;;;10064042;28;20063;-71
2023/08/12 02:04:27;;;;;;;4.07;3.53;;;;;;;;;;10062797;28;20045;-71
2023/08/12 02:09:19;;;;;;;6.88;5.15;;;;;;;;;;10065923;28;20053;-71
2023/08/12 02:14:11;;;;;;;3.83;3.42;;;;;;;;;;10074029;28;20044;-71
2023/08/12 02:19:03;;;;;;;4.15;3.50;;;;;;;;;;10057196;28;20491;-69
2023/08/12 02:23:55;;;;;;;5.22;3.35;;;;;;;;;;10063450;28;20045;-72
2023/08/12 02:28:47;;;;;;;3.88;3.58;;;;;;;;;;10068358;28;20045;-70
2023/08/12 02:33:40;;;;;;;4.00;3.60;;;;;;;;;;10067851;28;20060;-71
2023/08/12 02:38:32;;;;;;;4.20;3.47;;;;;;;;;;10066357;28;20049;-71
2023/08/12 02:43:24;;;;;;;5.05;3.47;;;;;;;;;;10066563;28;20060;-71
2023/08/12 02:48:16;;;;;;;4.20;3.72;;;;;;;;;;10082671;28;20041;-71
2023/08/12 02:53:08;;;;;;;4.72;3.70;;;;;;;;;;10065119;28;20057;-70
2023/08/12 02:58:01;;;;;;;4.85;4.00;;;;;;;;;;10056342;28;20510;-71
2023/08/12 03:02:54;;;;;;;3.75;3.42;;;;;;;;;;10064789;28;20069;-70
2023/08/12 03:07:45;;;;;;;5.63;3.70;;;;;;;;;;10061547;28;20095;-70
2023/08/12 03:12:37;;;;;;;3.92;3.60;;;;;;;;;;10062604;28;20383;-72
2023/08/12 03:17:30;;;;;;;10.25;5.65;;;;;;;;;;10060382;28;20076;-70
2023/08/12 03:22:22;;;;;;;6.20;4.32;;;;;;;;;;10061979;28;20079;-71
2023/08/12 03:27:14;;;;;;;8.68;3.97;;;;;;;;;;10062596;28;20079;-70
2023/08/12 03:32:08;;;;;;;4.07;3.67;;;;;;;;;;10026345;28;20149;-71
2023/08/12 03:37:00;;;;;;;4.55;3.90;;;;;;;;;;10043441;28;20049;-72
2023/08/12 03:41:53;;;;;;;5.57;3.60;;;;;;;;;;10060341;28;20053;-70
2023/08/12 03:46:45;;;;;;;3.80;3.50;;;;;;;;;;10064998;28;20103;-71
2023/08/12 03:51:37;;;;;;;4.75;3.70;;;;;;;;;;10050536;28;20052;-71
2023/08/12 03:56:29;;;;;;;4.18;3.75;;;;;;;;;;10061027;28;20049;-71
2023/08/12 04:01:23;;;;;;;3.97;3.67;;;;;;;;;;10060886;28;20072;-71
2023/08/12 04:06:15;;;;;;;4.30;3.90;;;;;;;;;;10063197;28;20045;-71
2023/08/12 04:11:07;;;;;;;4.93;3.63;;;;;;;;;;10061267;28;20041;-71
2023/08/12 04:15:59;;;;;;;6.75;4.25;;;;;;;;;;10061042;28;20046;-72
2023/08/12 04:20:52;;;;;;;6.32;4.47;;;;;;;;;;10062369;28;20132;-71
2023/08/12 04:25:45;;;;;;;5.28;4.78;;;;;;;;;;10062316;28;20498;-71
2023/08/12 04:30:46;;;;;;;3.95;3.65;;;;;;;;;;10062132;28;20092;-71
2023/08/12 04:35:40;;;;;;;3.88;3.58;;;;;;;;;;10062960;28;20041;-71
2023/08/12 04:40:33;;;;;;;6.97;3.85;;;;;;;;;;10062383;28;20379;-71
2023/08/12 04:45:25;;;;;;;4.32;3.92;;;;;;;;;;10062365;28;20124;-70
2023/08/12 04:50:17;;;;;;;4.68;4.05;;;;;;;;;;10060387;28;20045;-71
2023/08/12 04:55:12;;;;;;;4.13;3.83;;;;;;;;;;10077548;28;20045;-71
2023/08/12 05:00:08;;;;;;;4.38;4.03;;;;;;;;;;10036978;28;20064;-73
2023/08/12 05:05:01;;;;;;;5.10;3.90;;;;;;;;;;10054397;28;20522;-73
2023/08/12 05:09:55;;;;;;;7.97;4.95;;;;;;;;;;10059257;28;20049;-73
2023/08/12 05:14:48;;;;;;;5.35;4.78;;;;;;;;;;10060899;28;20071;-73
2023/08/12 05:19:41;;;;;;;5.53;5.00;;;;;;;;;;10061311;28;20476;-74
2023/08/12 05:24:32;;;;;;;4.93;4.18;;;;;;;;;;10060893;28;20375;-73
2023/08/12 05:29:24;;;;;;;7.13;4.35;;;;;;;;;;10060475;28;20123;-75
2023/08/12 05:34:16;;;;;;;7.72;4.50;;;;;;;;;;10063995;28;20042;-74
2023/08/12 05:39:08;;;;;;;5.00;4.60;;;;;;;;;;10061320;28;20137;-72
2023/08/12 05:44:00;;;;;;;5.13;4.65;;;;;;;;;;10028343;28;20164;-71
2023/08/12 05:48:52;;;;;;;5.20;4.10;;;;;;;;;;10046006;28;20203;-72
2023/08/12 05:53:44;;;;;;;5.85;4.60;;;;;;;;;;10060322;28;20141;-71
2023/08/12 05:58:36;;;;;;;5.55;5.15;;;;;;;;;;10059713;28;20104;-70
2023/08/12 06:03:28;;;;;;;5.60;5.10;;;;;;;;;;10066845;28;20046;-70
2023/08/12 06:08:20;;;;;;;5.82;5.22;;;;;;;;;;10066200;28;20042;-72
2023/08/12 06:13:12;;;;;;;6.63;5.97;;;;;;;;;;10067012;28;20076;-71
2023/08/12 06:18:04;;;;;;;5.82;5.32;;;;;;;;;;10068526;28;20151;-71
2023/08/12 06:22:56;;;;;;;6.28;5.78;;;;;;;;;;10067140;28;20054;-72
2023/08/12 06:27:48;;;;;;;9.07;6.90;;;;;;;;;;10067114;28;20128;-69
2023/08/12 06:32:40;;;;;;;6.25;5.65;;;;;;;;;;10066760;28;20045;-72
2023/08/12 06:37:32;;;;;;;7.75;7.03;;;;;;;;;;10043144;28;20096;-71
2023/08/12 06:42:24;;;;;;;11.40;6.78;;;;;;;;;;10047652;28;20080;-71
2023/08/12 06:47:16;;;;;;;8.20;6.65;;;;;;;;;;10068095;28;20053;-71
2023/08/12 06:52:08;;;;;;;9.10;7.25;;;;;;;;;;10067515;28;20411;-71
2023/08/12 06:57:00;;;;;;;7.97;7.20;;;;;;;;;;10065108;28;20053;-71
2023/08/12 07:01:52;;;;;;;9.82;7.68;;;;;;;;;;10065072;28;20159;-71
2023/08/12 07:06:44;;;;;;;8.88;8.07;;;;;;;;;;10063933;28;20099;-71
2023/08/12 07:11:36;;;;;;;8.68;7.95;;;;;;;;;;10063788;28;20392;-70
2023/08/12 07:16:28;;;;;;;11.88;8.93;;;;;;;;;;10065274;28;20041;-71
2023/08/12 07:21:19;;;;;;;9.75;8.82;;;;;;;;;;10061724;28;20454;-71
2023/08/12 07:26:11;;;;;;;9.10;7.80;;;;;;;;;;10062980;28;20041;-70
2023/08/12 07:31:03;;;;;;;8.23;7.50;;;;;;;;;;10066713;28;20048;-69
2023/08/12 07:35:55;;;;;;;7.22;6.63;;;;;;;;;;10065674;28;20104;-71
2023/08/12 07:40:49;;;;;;;8.38;7.72;;;;;;;;;;10065196;28;20052;-68
2023/08/12 07:45:40;;;;;;;11.20;8.95;;;;;;;;;;10064134;28;20468;-71
2023/08/12 07:50:35;;;;;;;8.40;7.60;;;;;;;;;;10063496;28;20099;-71
2023/08/12 07:55:28;;;;;;;8.55;7.85;;;;;;;;;;10062248;28;20038;-72
2023/08/12 08:00:20;;;;;;;7.50;6.90;;;;;;;;;;10063214;28;20084;-71
2023/08/12 08:05:12;;;;;;;7.80;7.03;;;;;;;;;;10064205;28;20053;-71
2023/08/12 08:10:05;;;;;;;8.20;7.50;;;;;;;;;;10061752;28;20084;-70
2023/08/12 08:14:56;;;;;;;6.93;6.32;;;;;;;;;;10060628;28;20056;-71
2023/08/12 08:19:48;;;;;;;7.65;6.95;;;;;;;;;;10059275;28;20060;-70
2023/08/12 08:24:40;;;;;;;9.32;8.43;;;;;;;;;;10056780;28;20051;-70
2023/08/12 08:29:32;;;;;;;8.15;7.32;;;;;;;;;;10061141;28;20037;-71
2023/08/12 08:34:24;;;;;;;7.25;6.65;;;;;;;;;;10062398;28;20049;-74
2023/08/12 08:39:16;;;;;;;9.20;7.40;;;;;;;;;;10057164;28;20056;-71
2023/08/12 08:44:08;;;;;;;8.25;6.32;;;;;;;;;;10059624;28;20047;-71
2023/08/12 08:49:01;;;;;;;7.95;6.25;;;;;;;;;;10061461;28;20506;-69
2023/08/12 08:53:54;;;;;;;6.15;5.55;;;;;;;;;;10063209;28;20087;-69
2023/08/12 08:58:48;;;;;;;6.57;5.57;;;;;;;;;;10062709;28;20057;-71
2023/08/12 09:03:40;;;;;;;8.63;5.97;;;;;;;;;;10062101;28;20045;-72
2023/08/12 09:08:33;;;;;;;8.15;6.25;;;;;;;;;;10081103;28;20061;-71
2023/08/12 09:13:25;;;;;;;10.10;7.78;;;;;;;;;;10064275;28;20033;-72
2023/08/12 09:18:17;;;;;;;8.88;7.68;;;;;;;;;;10073730;28;20057;-71
2023/08/12 09:23:10;;;;;;;13.25;8.65;;;;;;;;;;10063185;28;20053;-71
2023/08/12 09:28:02;;;;;;;9.70;7.45;;;;;;;;;;10087848;28;20427;-72
2023/08/12 09:33:06;;;;;;;11.07;8.18;;;;;;;;;;10062996;28;20100;-73
2023/08/12 09:38:00;;;;;;;8.27;7.57;;;;;;;;;;10070346;28;20081;-72
2023/08/12 09:42:52;;;;;;;7.15;6.45;;;;;;;;;;10067570;28;20068;-71
2023/08/12 09:47:44;;;;;;;7.05;6.22;;;;;;;;;;10070604;28;20038;-71
2023/08/12 09:52:36;;;;;;;8.27;7.50;;;;;;;;;;10069966;28;20099;-70
2023/08/12 09:57:29;;;;;;;9.07;7.10;;;;;;;;;;10067556;28;20057;-72
2023/08/12 10:02:21;;;;;;;8.30;6.30;;;;;;;;;;10065737;28;20049;-65
2023/08/12 10:07:14;;;;;;;6.32;5.72;;;;;;;;;;10068188;28;20045;-64
2023/08/12 10:12:07;;;;;;;6.97;6.38;;;;;;;;;;10072544;28;20415;-64
2023/08/12 10:16:59;;;;;;;6.22;5.65;;;;;;;;;;10079617;28;20088;-65
2023/08/12 10:21:58;;;;;;;5.97;4.60;;;;;;;;;;10070219;28;20487;-64
2023/08/12 10:26:52;;;;;;;10.18;5.85;;;;;;;;;;10068907;28;20037;-64
2023/08/12 10:31:46;;;;;;;6.70;6.03;;;;;;;;;;10065645;28;20442;-64
2023/08/12 10:36:41;;;;;;;5.75;5.28;;;;;;;;;;10060700;28;20494;-64
2023/08/12 10:41:54;;;;;;;5.45;4.90;;;;;;;;;;10029552;28;20382;-64
2023/08/12 10:46:54;;;;;;;13.52;5.72;;;;;;;;;;10058846;28;20136;-64
2023/08/12 10:51:53;;;;;;;5.50;4.95;;;;;;;;;;10063803;28;20104;-62
2023/08/12 10:57:01;;;;;;;5.88;4.90;;;;;;;;;;10079788;28;20079;-64
2023/08/12 11:01:53;;;;;;;6.30;5.60;;;;;;;;;;10078972;28;20099;-63
2023/08/12 11:06:46;;;;;;;5.00;4.53;;;;;;;;;;10058493;28;20097;-64
2023/08/12 11:11:39;;;;;;;6.28;4.68;;;;;;;;;;10073733;28;20065;-63
2023/08/12 11:16:35;;;;;;;6.90;4.93;;;;;;;;;;10066315;28;20041;-63
2023/08/12 11:21:27;;;;;;;4.90;4.10;;;;;;;;;;10058742;28;20049;-63
2023/08/12 11:26:19;;;;;;;4.90;3.70;;;;;;;;;;10059431;28;20236;-66
2023/08/12 11:31:11;;;;;;;4.93;4.40;;;;;;;;;;10062129;28;20046;-65
2023/08/12 11:36:03;;;;;;;5.38;4.90;;;;;;;;;;10064656;28;20048;-65
2023/08/12 11:40:55;;;;;;;6.15;4.20;;;;;;;;;;10065408;28;20046;-64
2023/08/12 11:45:47;;;;;;;6.10;4.55;;;;;;;;;;10070713;28;20136;-66
2023/08/12 11:50:39;;;;;;;5.35;3.97;;;;;;;;;;10046518;28;20050;-66
2023/08/12 11:55:31;;;;;;;9.15;4.10;;;;;;;;;;10078333;28;20488;-65
2023/08/12 12:00:25;;;;;;;5.97;5.30;;;;;;;;;;10061482;28;20103;-63
2023/08/12 12:05:18;;;;;;;5.38;3.35;;;;;;;;;;10064068;28;20073;-65
2023/08/12 12:10:27;;;;;;;5.50;3.83;;;;;;;;;;10056542;28;20583;-65
2023/08/12 12:15:23;;;;;;;4.85;4.10;;;;;;;;;;10054919;28;20045;-64
2023/08/12 12:20:15;;;;;;;5.63;4.30;;;;;;;;;;10059308;28;20057;-64
2023/08/12 12:25:09;;;;;;;4.47;3.17;;;;;;;;;;10065144;28;20140;-65
2023/08/12 12:30:01;;;;;;;6.20;3.25;;;;;;;;;;10071125;28;20041;-65
2023/08/12 12:34:54;;;;;;;5.78;3.60;;;;;;;;;;10069368;28;20049;-65
2023/08/12 12:39:46;;;;;;;6.85;3.60;;;;;;;;;;10069877;28;20053;-64
2023/08/12 12:44:38;;;;;;;4.65;3.33;;;;;;;;;;10060136;28;20057;-64
2023/08/12 12:49:30;;;;;;;4.35;3.25;;;;;;;;;;10064900;28;20073;-65
2023/08/12 12:54:22;;;;;;;3.53;3.13;;;;;;;;;;10063389;28;20115;-65
2023/08/12 12:59:17;;;;;;;4.05;2.80;;;;;;;;;;10040464;28;20058;-65
2023/08/12 13:04:09;;;;;;;5.28;2.80;;;;;;;;;;10061346;28;20369;-65
2023/08/12 13:09:01;;;;;;;4.68;2.85;;;;;;;;;;10035249;28;20468;-63
2023/08/12 13:13:54;;;;;;;5.28;3.30;;;;;;;;;;10039006;28;20161;-65
2023/08/12 13:18:46;;;;;;;3.60;3.03;;;;;;;;;;10058566;28;20053;-64
2023/08/12 13:23:37;;;;;;;6.25;3.97;;;;;;;;;;10077952;28;20132;-66
2023/08/12 13:28:29;;;;;;;3.08;2.78;;;;;;;;;;10071770;28;20491;-65
2023/08/12 13:33:21;;;;;;;5.05;3.00;;;;;;;;;;10071362;28;20124;-64
2023/08/12 13:38:13;;;;;;;6.60;3.95;;;;;;;;;;10071400;28;20057;-65
2023/08/12 13:43:05;;;;;;;3.85;2.13;;;;;;;;;;10076163;28;20049;-71
2023/08/12 13:47:57;;;;;;;5.93;2.70;;;;;;;;;;10068782;28;20115;-71
2023/08/12 13:52:50;;;;;;;4.30;2.35;;;;;;;;;;10070026;28;20064;-71
2023/08/12 13:57:42;;;;;;;2.45;2.20;;;;;;;;;;10056569;28;20402;-71
2023/08/12 14:02:34;;;;;;;5.32;2.45;;;;;;;;;;10067642;28;20140;-72
2023/08/12 14:07:26;;;;;;;2.95;2.72;;;;;;;;;;10069490;28;20099;-71
2023/08/12 14:12:18;;;;;;;5.80;2.60;;;;;;;;;;10064284;28;20440;-71
2023/08/12 14:17:13;;;;;;;5.85;2.70;;;;;;;;;;10064318;28;20053;-70
2023/08/12 14:22:05;;;;;;;2.23;2.03;;;;;;;;;;10063569;28;20487;-71
2023/08/12 14:26:57;;;;;;;3.38;2.28;;;;;;;;;;10050253;28;20041;-70
2023/08/12 14:31:50;;;;;;;7.20;2.47;;;;;;;;;;10064741;28;20081;-71
2023/08/12 14:36:42;;;;;;;3.03;2.40;;;;;;;;;;10041605;28;20050;-71
2023/08/12 14:41:34;;;;;;;4.78;2.08;;;;;;;;;;10057176;28;20057;-70
2023/08/12 14:46:26;;;;;;;10.38;3.80;;;;;;;;;;10074773;28;20112;-71
2023/08/12 14:51:18;;;;;;;3.63;2.58;;;;;;;;;;10068919;28;20043;-69
2023/08/12 14:56:09;;;;;;;4.13;2.33;;;;;;;;;;10077935;28;20134;-71
2023/08/12 15:01:02;;;;;;;2.75;1.85;;;;;;;;;;10067259;28;20061;-70
2023/08/12 15:06:01;;;;;;;7.45;2.50;;;;;;;;;;10065937;28;20045;-71
2023/08/12 15:10:53;;;;;;;5.32;2.22;;;;;;;;;;10065795;28;20045;-71
2023/08/12 15:15:46;;;;;;;3.33;1.92;;;;;;;;;;10066501;28;20033;-70
2023/08/12 15:20:38;;;;;;;3.45;2.03;;;;;;;;;;10066363;28;20060;-70
2023/08/12 15:25:31;;;;;;;10.00;3.35;;;;;;;;;;10065778;28;20361;-71
2023/08/12 15:30:23;;;;;;;4.88;2.30;;;;;;;;;;10073560;28;20042;-71
2023/08/12 15:35:14;;;;;;;3.08;1.60;;;;;;;;;;10078955;28;20050;-72
2023/08/12 15:40:07;;;;;;;3.67;2.28;;;;;;;;;;10065724;28;20116;-71
2023/08/12 15:45:01;;;;;;;3.30;1.83;;;;;;;;;;10052786;28;20103;-72
2023/08/12 15:49:53;;;;;;;3.25;1.48;;;;;;;;;;10064409;28;20650;-72
2023/08/12 15:54:45;;;;;;;5.65;2.17;;;;;;;;;;10052654;28;20050;-70
2023/08/12 15:59:36;;;;;;;2.15;1.60;;;;;;;;;;10025958;28;20476;-71
2023/08/12 16:04:28;;;;;;;2.67;1.77;;;;;;;;;;10038434;28;20038;-72
2023/08/12 16:09:20;;;;;;;1.67;1.58;;;;;;;;;;10024941;28;20046;-72
2023/08/12 16:14:12;;;;;;;5.47;1.98;;;;;;;;;;10038169;28;20539;-73
2023/08/12 16:19:04;;;;;;;4.82;2.53;;;;;;;;;;10044326;28;20487;-72
2023/08/12 16:23:56;;;;;;;3.22;1.83;;;;;;;;;;10065454;28;20053;-71
2023/08/12 16:28:48;;;;;;;3.05;2.00;;;;;;;;;;10022736;28;20048;-71
2023/08/12 16:33:40;;;;;;;2.63;2.00;;;;;;;;;;10023798;28;20490;-72
2023/08/12 16:38:31;;;;;;;3.50;2.00;;;;;;;;;;10036775;28;20081;-72
2023/08/12 16:43:23;;;;;;;2.58;2.10;;;;;;;;;;10058055;28;20045;-73
2023/08/12 16:48:15;;;;;;;6.15;2.03;;;;;;;;;;10063672;28;20044;-73
2023/08/12 16:53:07;;;;;;;4.22;1.85;;;;;;;;;;10062728;28;20041;-72
2023/08/12 16:58:02;;;;;;;2.10;1.90;;;;;;;;;;10067784;28;20060;-72
2023/08/12 17:02:54;;;;;;;4.63;2.08;;;;;;;;;;10056465;28;20069;-72
2023/08/12 17:07:46;;;;;;;5.32;2.10;;;;;;;;;;10046101;28;20510;-73
2023/08/12 17:12:38;;;;;;;4.22;2.58;;;;;;;;;;10062305;28;20079;-73
2023/08/12 17:17:30;;;;;;;6.72;2.72;;;;;;;;;;10050344;28;20065;-71
2023/08/12 17:22:22;;;;;;;5.10;1.98;;;;;;;;;;10054194;28;20046;-71
2023/08/12 17:27:14;;;;;;;6.10;2.22;;;;;;;;;;10053712;28;20387;-71
2023/08/12 17:32:06;;;;;;;3.00;2.38;;;;;;;;;;10049532;28;20794;-70
2023/08/12 17:36:57;;;;;;;5.47;3.08;;;;;;;;;;10056115;28;20054;-70
2023/08/12 17:41:49;;;;;;;5.05;2.28;;;;;;;;;;10057930;28;20126;-71
2023/08/12 17:46:43;;;;;;;2.85;2.30;;;;;;;;;;10055613;28;20081;-70
2023/08/12 17:51:35;;;;;;;3.63;2.35;;;;;;;;;;10056315;28;20668;-70
2023/08/12 17:56:27;;;;;;;10.18;2.75;;;;;;;;;;10055913;28;20053;-69
2023/08/12 18:01:18;;;;;;;5.35;2.60;;;;;;;;;;10087841;28;20479;-70
2023/08/12 18:06:10;;;;;;;4.70;3.33;;;;;;;;;;10056110;28;20065;-68
2023/08/12 18:11:02;;;;;;;4.40;2.85;;;;;;;;;;10060029;28;20042;-68
2023/08/12 18:15:54;;;;;;;2.80;2.30;;;;;;;;;;10073218;28;20049;-70
2023/08/12 18:20:46;;;;;;;8.50;2.65;;;;;;;;;;10061550;28;20140;-68
2023/08/12 18:25:39;;;;;;;3.97;2.60;;;;;;;;;;10060932;28;20044;-71
2023/08/12 18:30:31;;;;;;;5.80;2.83;;;;;;;;;;10039990;28;20092;-68
2023/08/12 18:35:23;;;;;;;5.90;2.70;;;;;;;;;;10050900;28;20426;-68
2023/08/12 18:40:15;;;;;;;4.82;2.55;;;;;;;;;;10047066;28;20049;-69
2023/08/12 18:45:07;;;;;;;6.57;2.65;;;;;;;;;;10036713;28;20054;-69
2023/08/12 18:49:59;;;;;;;4.40;2.58;;;;;;;;;;10065599;28;20395;-70
2023/08/12 18:54:51;;;;;;;3.35;2.55;;;;;;;;;;10017447;28;20099;-68
2023/08/12 18:59:43;;;;;;;5.43;2.60;;;;;;;;;;10057664;28;20088;-68
2023/08/12 19:04:35;;;;;;;6.40;3.45;;;;;;;;;;10060645;28;20120;-67
2023/08/12 19:09:27;;;;;;;5.30;3.25;;;;;;;;;;10056294;28;20566;-69
2023/08/12 19:14:19;;;;;;;6.68;3.17;;;;;;;;;;10035316;28;20045;-69
2023/08/12 19:19:11;;;;;;;4.90;3.05;;;;;;;;;;10031170;28;20045;-68
2023/08/12 19:24:04;;;;;;;9.88;7.25;;;;;;;;;;10058124;28;20129;-69
2023/08/12 19:28:56;;;;;;;5.25;3.97;;;;;;;;;;10059091;28;20072;-70
2023/08/12 19:33:48;;;;;;;5.65;3.15;;;;;;;;;;10059449;28;20041;-69
2023/08/12 19:38:39;;;;;;;14.82;7.90;;;;;;;;;;10058136;28;20084;-68
2023/08/12 19:43:31;;;;;;;6.15;5.28;;;;;;;;;;10048634;28;20041;-69
2023/08/12 19:48:23;;;;;;;10.15;5.20;;;;;;;;;;10034527;28;20076;-69
2023/08/12 19:53:15;;;;;;;5.50;3.13;;;;;;;;;;10042512;28;20677;-70
2023/08/12 19:58:07;;;;;;;4.43;2.85;;;;;;;;;;10010416;28;20136;-70
2023/08/12 20:02:59;;;;;;;4.43;3.65;;;;;;;;;;10058808;28;20042;-70
2023/08/12 20:07:51;;;;;;;4.70;2.83;;;;;;;;;;10039297;28;20073;-71
2023/08/12 20:12:44;;;;;;;9.43;2.70;;;;;;;;;;10064018;28;20145;-68
2023/08/12 20:17:37;;;;;;;4.30;3.00;;;;;;;;;;10047770;28;20079;-70
2023/08/12 20:22:30;;;;;;;6.75;2.75;;;;;;;;;;10027412;28;20145;-71
2023/08/12 20:27:22;;;;;;;3.60;2.30;;;;;;;;;;10043828;28;20041;-70
2023/08/12 20:32:14;;;;;;;4.90;3.30;;;;;;;;;;10035819;28;20111;-69
2023/08/12 20:37:06;;;;;;;5.88;2.80;;;;;;;;;;10036089;28;20072;-70
2023/08/12 20:41:58;;;;;;;6.10;2.60;;;;;;;;;;10052212;28;20632;-70
2023/08/12 20:46:50;;;;;;;2.80;2.45;;;;;;;;;;10070465;28;20427;-71
2023/08/12 20:51:41;;;;;;;3.85;2.55;;;;;;;;;;10063970;28;20154;-70
2023/08/12 20:56:33;;;;;;;3.63;3.22;;;;;;;;;;10063515;28;20048;-72
2023/08/12 21:01:25;;;;;;;2.70;2.40;;;;;;;;;;10063067;28;20519;-71
2023/08/12 21:06:17;;;;;;;4.07;3.05;;;;;;;;;;10064220;28;20602;-70
2023/08/12 21:11:11;;;;;;;6.75;3.17;;;;;;;;;;10062533;28;20041;-70
2023/08/12 21:16:04;;;;;;;11.60;2.97;;;;;;;;;;10063516;28;20100;-71
2023/08/12 21:20:56;;;;;;;4.78;2.78;;;;;;;;;;10063239;28;20081;-71
2023/08/12 21:25:47;;;;;;;3.22;2.60;;;;;;;;;;10063189;28;20096;-72
2023/08/12 21:30:40;;;;;;;3.67;2.75;;;;;;;;;;10064612;28;20470;-71
2023/08/12 21:35:31;;;;;;;6.60;2.92;;;;;;;;;;10052033;28;20049;-70
2023/08/12 21:40:24;;;;;;;5.47;2.83;;;;;;;;;;10030096;28;20053;-70
2023/08/12 21:45:16;;;;;;;4.00;2.80;;;;;;;;;;10031352;28;20045;-73
2023/08/12 21:50:08;;;;;;;4.47;2.97;;;;;;;;;;10067130;28;20068;-72
2023/08/12 21:55:00;;;;;;;5.43;3.42;;;;;;;;;;10067603;28;20042;-72
2023/08/12 21:59:52;;;;;;;7.65;2.90;;;;;;;;;;10068139;28;20083;-71
2023/08/12 22:04:44;;;;;;;7.78;3.22;;;;;;;;;;10061998;28;20046;-71
2023/08/12 22:09:36;;;;;;;4.43;3.00;;;;;;;;;;10064926;28;20049;-71
2023/08/12 22:14:28;;;;;;;3.45;3.15;;;;;;;;;;10066137;28;20404;-71
2023/08/12 22:19:20;;;;;;;5.28;3.00;;;;;;;;;;10059168;28;20495;-71
2023/08/12 22:24:12;;;;;;;3.45;3.15;;;;;;;;;;10065550;28;20046;-71
2023/08/12 22:29:04;;;;;;;12.30;4.70;;;;;;;;;;10064014;28;20465;-70
2023/08/12 22:33:56;;;;;;;4.40;3.22;;;;;;;;;;10068442;28;20058;-71
2023/08/12 22:38:48;;;;;;;3.50;3.20;;;;;;;;;;10067906;28;20054;-70
2023/08/12 22:43:39;;;;;;;5.38;3.78;;;;;;;;;;10067503;28;20118;-70
2023/08/12 22:48:31;;;;;;;4.18;3.30;;;;;;;;;;10067392;28;20467;-69
2023/08/12 22:53:23;;;;;;;4.90;4.15;;;;;;;;;;10066406;28;20097;-70
2023/08/12 22:58:15;;;;;;;10.05;4.50;;;;;;;;;;10067971;28;20529;-69
2023/08/12 23:03:07;;;;;;;4.30;3.90;;;;;;;;;;10066866;28;20133;-70
2023/08/12 23:07:59;;;;;;;4.50;3.63;;;;;;;;;;10067639;28;20064;-70
2023/08/12 23:12:51;;;;;;;3.90;3.60;;;;;;;;;;10062999;28;20365;-72
2023/08/12 23:17:43;;;;;;;4.00;3.60;;;;;;;;;;10052062;28;20037;-70
2023/08/12 23:22:34;;;;;;;4.53;3.60;;;;;;;;;;10055335;28;20073;-70
2023/08/12 23:27:26;;;;;;;5.03;4.15;;;;;;;;;;10062472;28;20096;-70
2023/08/12 23:32:19;;;;;;;7.95;4.00;;;;;;;;;;10066711;28;20076;-70
2023/08/12 23:37:11;;;;;;;7.45;3.88;;;;;;;;;;10050988;28;20049;-70
2023/08/12 23:42:03;;;;;;;7.18;3.60;;;;;;;;;;10065310;28;20136;-70
2023/08/12 23:46:55;;;;;;;4.20;3.42;;;;;;;;;;10065288;28;20140;-70
2023/08/12 23:51:48;;;;;;;6.18;4.43;;;;;;;;;;10065539;28;20073;-70
2023/08/12 23:56:39;;;;;;;4.53;4.13;;;;;;;;;;10064805;28;20058;-71
